Atlantic City, Wyoming
Current Conditions -  °F | °C
As of 9:15 AM on Friday 24 Oct 2014 (Local Time) from KFWZ Reporting Station
Clear Clear  
Wind Chill: 37°   Ceiling: Unl
Heat Index: 45°   Visibility: 10mi
Dew Point: 25°   Wind: 17mph
Humidity: 46%   Direction: 250°WSW
Pressure: 30.21"   Gusts: 22mph
Location:  42.6143°N, 108.586°W
Report Text: KFWZ 241515Z AUTO 25015G19KT 10SM CLR 07/M04 A3021 RMK AO2
Loading
Personal Weather Stations






























Interactive Weather Map
Tropical Storm Tracking
New forecast layout! Learn more

10-Day Weather Forecast

Advertisements
Track Severe Weather on mobile